createdAt,value
2023-04-18T00:00:21.337Z,9.55
2023-04-18T00:03:24.124Z,9.54
2023-04-18T00:06:26.875Z,9.49
2023-04-18T00:09:28.902Z,9.45
2023-04-18T00:12:32.103Z,9.60
2023-04-18T00:15:35.700Z,9.53
2023-04-18T00:18:37.684Z,9.49
2023-04-18T00:21:45.132Z,9.45
2023-04-18T00:24:47.557Z,9.46
2023-04-18T00:27:49.581Z,9.43
2023-04-18T00:30:52.780Z,9.42
2023-04-18T00:33:54.970Z,9.43
2023-04-18T00:36:58.982Z,9.45
2023-04-18T00:40:00.955Z,9.36
2023-04-18T00:43:03.213Z,9.40
2023-04-18T00:46:05.403Z,9.37
2023-04-18T00:49:08.223Z,9.50
2023-04-18T00:52:12.153Z,9.40
2023-04-18T00:55:16.404Z,9.37
2023-04-18T00:58:18.399Z,9.31
2023-04-18T01:01:20.449Z,9.34
2023-04-18T01:04:22.718Z,9.23
2023-04-18T01:07:26.671Z,9.17
2023-04-18T01:10:32.041Z,9.30
2023-04-18T01:13:34.067Z,9.26
2023-04-18T01:16:39.044Z,9.30
2023-04-18T01:19:41.129Z,9.25
2023-04-18T01:22:43.392Z,9.25
2023-04-18T01:25:47.206Z,9.26
2023-04-18T01:28:49.199Z,9.27
2023-04-18T01:31:51.230Z,9.22
2023-04-18T01:34:53.211Z,9.23
2023-04-18T01:37:55.632Z,9.20
2023-04-18T01:40:57.565Z,9.18
2023-04-18T01:44:00.208Z,8.98
2023-04-18T01:47:02.589Z,9.15
2023-04-18T01:50:08.100Z,9.24
2023-04-18T01:53:10.062Z,9.04
2023-04-18T01:56:12.058Z,9.16
2023-04-18T01:59:14.085Z,9.19
2023-04-18T02:02:16.534Z,9.21
2023-04-18T02:05:19.060Z,9.12
2023-04-18T02:08:21.386Z,9.04
2023-04-18T02:11:23.360Z,9.05
2023-04-18T02:14:30.248Z,9.02
2023-04-18T02:17:36.473Z,9.02
2023-04-18T02:20:38.734Z,8.99
2023-04-18T02:23:40.754Z,9.22
2023-04-18T02:26:43.378Z,9.10
2023-04-18T02:29:46.026Z,9.03
2023-04-18T02:32:52.265Z,9.00
2023-04-18T02:35:54.330Z,8.97
2023-04-18T02:38:56.704Z,9.00
2023-04-18T02:41:59.030Z,8.98
2023-04-18T02:45:01.026Z,9.04
2023-04-18T02:48:03.099Z,9.06
2023-04-18T02:51:07.779Z,9.07
2023-04-18T02:54:12.059Z,8.98
2023-04-18T02:57:30.000Z,9.13
2023-04-18T03:00:37.517Z,9.06
2023-04-18T03:03:59.927Z,9.04
2023-04-18T03:07:09.578Z,9.03
2023-04-18T03:10:13.894Z,9.01
2023-04-18T03:13:17.635Z,9.02
2023-04-18T03:16:20.033Z,9.02
2023-04-18T03:19:23.836Z,9.08
2023-04-18T03:22:27.935Z,9.05
2023-04-18T03:25:34.584Z,9.09
2023-04-18T03:28:37.618Z,9.05
2023-04-18T03:31:41.769Z,9.07
2023-04-18T03:34:44.320Z,9.07
2023-04-18T03:37:46.481Z,9.06
2023-04-18T03:40:55.440Z,9.01
2023-04-18T03:44:05.387Z,9.00
2023-04-18T03:47:11.382Z,9.05
2023-04-18T03:50:16.733Z,9.08
2023-04-18T03:53:20.531Z,9.06
2023-04-18T03:56:23.575Z,9.11
2023-04-18T03:59:27.590Z,9.06
2023-04-18T04:02:30.748Z,9.02
2023-04-18T04:05:33.186Z,9.02
2023-04-18T04:08:35.213Z,9.01
2023-04-18T04:11:37.907Z,8.99
2023-04-18T04:14:42.505Z,8.99
2023-04-18T04:17:44.754Z,8.98
2023-04-18T04:20:48.103Z,8.98
2023-04-18T04:24:10.634Z,8.98
2023-04-18T04:27:19.133Z,8.93
2023-04-18T04:30:21.914Z,8.74
2023-04-18T04:33:26.044Z,8.91
2023-04-18T04:36:30.890Z,8.99
2023-04-18T04:39:34.326Z,8.98
2023-04-18T04:42:56.947Z,8.96
2023-04-18T04:46:07.823Z,8.97
2023-04-18T04:49:09.960Z,8.95
2023-04-18T04:52:12.030Z,8.94
2023-04-18T04:55:14.098Z,8.97
2023-04-18T04:58:18.002Z,8.98
2023-04-18T05:01:59.869Z,8.96
2023-04-18T05:05:01.972Z,8.98
2023-04-18T05:08:04.943Z,8.97
2023-04-18T05:11:07.079Z,8.96
2023-04-18T05:14:09.224Z,8.97
2023-04-18T05:17:11.281Z,9.03
2023-04-18T05:20:13.353Z,8.97
2023-04-18T05:23:15.372Z,8.83
2023-04-18T05:26:18.874Z,9.00
2023-04-18T05:29:20.913Z,8.96
2023-04-18T05:32:24.221Z,8.96
2023-04-18T05:35:26.396Z,8.37
2023-04-18T05:38:28.389Z,8.72
2023-04-18T05:41:30.554Z,9.02
2023-04-18T05:44:32.598Z,9.05
2023-04-18T05:47:34.667Z,9.02
2023-04-18T05:50:36.814Z,9.05
2023-04-18T05:53:38.869Z,9.02
2023-04-18T05:56:41.053Z,8.90
2023-04-18T05:59:43.260Z,8.86
2023-04-18T06:02:45.386Z,8.97
2023-04-18T06:05:47.507Z,8.99
2023-04-18T06:08:49.537Z,9.07
2023-04-18T06:11:51.557Z,9.10
2023-04-18T06:14:53.598Z,9.04
2023-04-18T06:17:55.660Z,9.09
2023-04-18T06:20:57.729Z,9.07
2023-04-18T06:24:01.508Z,9.07
2023-04-18T06:27:03.902Z,9.11
2023-04-18T06:30:07.868Z,9.10
2023-04-18T06:33:11.242Z,9.13
2023-04-18T06:36:13.298Z,9.29
2023-04-18T06:39:15.393Z,9.30
2023-04-18T06:42:17.699Z,9.30
2023-04-18T06:45:22.854Z,9.27
2023-04-18T06:48:24.884Z,9.28
2023-04-18T06:51:27.732Z,9.16
2023-04-18T06:54:29.780Z,8.66
2023-04-18T06:57:31.824Z,9.34
2023-04-18T07:00:33.899Z,9.34
2023-04-18T07:03:36.079Z,9.34
2023-04-18T07:06:38.310Z,9.03
2023-04-18T07:09:40.386Z,9.11
2023-04-18T07:12:42.344Z,9.29
2023-04-18T07:15:44.470Z,9.37
2023-04-18T07:18:46.435Z,9.31
2023-04-18T07:21:48.483Z,9.44
2023-04-18T07:24:50.579Z,9.43
2023-04-18T07:27:52.559Z,9.44
2023-04-18T07:30:57.045Z,9.44
2023-04-18T07:33:59.193Z,9.43
2023-04-18T07:37:01.497Z,9.09
2023-04-18T07:40:04.514Z,9.44
2023-04-18T07:43:06.502Z,9.52
2023-04-18T07:46:08.725Z,9.38
2023-04-18T07:49:10.926Z,9.45
2023-04-18T07:52:13.042Z,9.52
2023-04-18T07:55:15.140Z,9.48
2023-04-18T07:58:17.600Z,9.61
2023-04-18T08:01:21.237Z,9.45
2023-04-18T08:04:23.488Z,9.46
2023-04-18T08:07:25.983Z,9.47
2023-04-18T08:10:28.347Z,8.85
2023-04-18T08:13:30.585Z,9.47
2023-04-18T08:16:32.645Z,9.57
2023-04-18T08:19:34.770Z,9.58
2023-04-18T08:22:44.185Z,9.52
2023-04-18T08:25:58.915Z,9.61
2023-04-18T08:29:00.960Z,9.65
2023-04-18T08:32:03.142Z,9.50
2023-04-18T08:35:05.497Z,9.53
2023-04-18T08:38:07.803Z,9.70
2023-04-18T08:41:09.986Z,9.42
2023-04-18T08:44:12.540Z,9.53
2023-04-18T08:47:14.888Z,9.53
2023-04-18T08:50:17.513Z,9.55
2023-04-18T08:53:19.573Z,9.60
2023-04-18T08:56:26.188Z,9.65
2023-04-18T08:59:28.296Z,9.68
2023-04-18T09:02:39.191Z,9.64
2023-04-18T09:05:41.560Z,9.76
2023-04-18T09:08:55.061Z,9.75
2023-04-18T09:12:18.540Z,9.67
2023-04-18T09:15:23.871Z,9.96
2023-04-18T09:18:26.120Z,9.55
2023-04-18T09:21:29.899Z,9.65
2023-04-18T09:24:32.672Z,9.88
2023-04-18T09:27:35.413Z,9.86
2023-04-18T09:30:40.196Z,9.94
2023-04-18T09:33:57.110Z,10.01
2023-04-18T09:37:07.966Z,10.21
2023-04-18T09:40:20.543Z,10.36
2023-04-18T09:43:22.577Z,10.44
2023-04-18T09:46:25.550Z,10.42
2023-04-18T09:49:27.871Z,10.50
2023-04-18T09:52:40.375Z,10.59
2023-04-18T09:55:43.156Z,10.47
2023-04-18T09:58:47.637Z,10.39
2023-04-18T10:01:50.970Z,10.39
2023-04-18T10:04:56.273Z,10.29
2023-04-18T10:07:58.850Z,10.48
2023-04-18T10:11:01.339Z,10.52
2023-04-18T10:14:08.006Z,10.68
2023-04-18T10:17:11.316Z,10.81
2023-04-18T10:20:20.286Z,10.90
2023-04-18T10:23:34.978Z,11.01
2023-04-18T10:26:50.573Z,11.06
2023-04-18T10:29:54.985Z,11.03
2023-04-18T10:32:57.044Z,10.89
2023-04-18T10:36:20.782Z,10.81
2023-04-18T10:39:24.452Z,10.80
2023-04-18T10:42:58.743Z,10.87
2023-04-18T10:46:23.988Z,10.82
2023-04-18T10:49:35.403Z,10.83
2023-04-18T10:52:37.565Z,10.70
2023-04-18T10:55:44.885Z,10.75
2023-04-18T10:58:51.524Z,10.68
2023-04-18T11:02:04.780Z,10.72
2023-04-18T11:05:08.640Z,10.73
2023-04-18T11:08:29.052Z,10.94
2023-04-18T11:11:31.014Z,11.04
2023-04-18T11:14:48.453Z,11.23
2023-04-18T11:18:04.711Z,11.43
2023-04-18T11:21:06.847Z,11.64
2023-04-18T11:24:08.975Z,11.72
2023-04-18T11:27:12.473Z,11.81
2023-04-18T11:30:15.816Z,11.61
2023-04-18T11:33:18.096Z,11.71
2023-04-18T11:36:20.235Z,11.65
2023-04-18T11:39:22.892Z,11.78
2023-04-18T11:42:31.179Z,11.70
2023-04-18T11:45:33.829Z,11.69
2023-04-18T11:48:40.929Z,11.92
2023-04-18T11:51:46.419Z,11.27
2023-04-18T11:54:48.630Z,11.86
2023-04-18T11:58:00.697Z,11.76
2023-04-18T12:01:18.773Z,11.71
2023-04-18T12:04:21.345Z,11.58
2023-04-18T12:07:33.914Z,11.35
2023-04-18T12:10:38.726Z,11.33
2023-04-18T12:13:40.816Z,11.54
2023-04-18T12:16:42.847Z,11.29
2023-04-18T12:19:49.673Z,11.33
2023-04-18T12:22:54.399Z,11.32
2023-04-18T12:26:01.506Z,11.46
2023-04-18T12:29:03.484Z,11.36
2023-04-18T12:32:06.341Z,11.34
2023-04-18T12:35:08.981Z,11.45
2023-04-18T12:38:11.236Z,11.36
2023-04-18T12:41:13.222Z,11.35
2023-04-18T12:44:16.488Z,11.27
2023-04-18T12:47:18.736Z,11.14
2023-04-18T12:50:26.050Z,11.06
2023-04-18T12:53:28.311Z,11.12
2023-04-18T12:56:30.325Z,11.16
2023-04-18T12:59:32.390Z,10.93
2023-04-18T13:02:37.557Z,11.22
2023-04-18T13:05:39.759Z,11.11
2023-04-18T13:08:42.907Z,11.11
2023-04-18T13:11:45.252Z,11.09
2023-04-18T13:14:47.219Z,11.10
2023-04-18T13:17:49.808Z,11.03
2023-04-18T13:20:52.739Z,11.07
2023-04-18T13:23:54.894Z,10.98
2023-04-18T13:26:57.066Z,10.85
2023-04-18T13:29:59.073Z,10.65
2023-04-18T13:33:01.089Z,10.69
2023-04-18T13:36:03.424Z,10.61
2023-04-18T13:39:05.977Z,10.55
2023-04-18T13:42:08.215Z,10.45
2023-04-18T13:45:10.794Z,10.36
2023-04-18T13:48:14.447Z,10.30
2023-04-18T13:51:18.228Z,10.28
2023-04-18T13:54:20.337Z,10.31
2023-04-18T13:57:23.414Z,10.33
2023-04-18T14:00:25.527Z,10.30
2023-04-18T14:03:28.809Z,10.24
2023-04-18T14:06:32.745Z,10.41
2023-04-18T14:09:34.912Z,10.43
2023-04-18T14:12:37.020Z,10.24
2023-04-18T14:15:39.256Z,10.56
2023-04-18T14:18:41.359Z,10.42
2023-04-18T14:21:43.327Z,10.51
2023-04-18T14:24:45.648Z,10.37
2023-04-18T14:27:48.878Z,10.07
2023-04-18T14:30:52.213Z,10.29
2023-04-18T14:33:54.374Z,10.45
2023-04-18T14:36:56.418Z,10.24
2023-04-18T14:39:58.397Z,10.41
2023-04-18T14:43:00.754Z,10.40
2023-04-18T14:46:02.772Z,10.50
2023-04-18T14:49:04.756Z,10.46
2023-04-18T14:52:06.807Z,10.36
2023-04-18T14:55:09.819Z,10.26
2023-04-18T14:58:11.819Z,10.31
2023-04-18T15:01:13.900Z,10.15
2023-04-18T15:04:16.276Z,10.02
2023-04-18T15:07:18.643Z,10.00
2023-04-18T15:10:22.693Z,9.71
2023-04-18T15:13:25.451Z,9.85
2023-04-18T15:16:27.726Z,9.81
2023-04-18T15:19:31.286Z,9.83
2023-04-18T15:22:34.058Z,9.65
2023-04-18T15:25:36.077Z,9.74
2023-04-18T15:28:38.119Z,9.93
2023-04-18T15:31:40.106Z,9.90
2023-04-18T15:34:42.127Z,10.01
2023-04-18T15:37:44.180Z,10.11
2023-04-18T15:40:46.208Z,10.14
2023-04-18T15:43:48.359Z,10.12
2023-04-18T15:46:50.919Z,10.14
2023-04-18T15:49:53.484Z,10.03
2023-04-18T15:52:56.577Z,10.05
2023-04-18T15:56:01.892Z,9.87
2023-04-18T15:59:06.033Z,9.91
2023-04-18T16:02:09.710Z,9.98
2023-04-18T16:05:12.637Z,10.07
2023-04-18T16:08:14.896Z,10.07
2023-04-18T16:11:17.353Z,10.03
2023-04-18T16:14:19.540Z,9.57
2023-04-18T16:17:21.584Z,10.21
2023-04-18T16:20:23.831Z,10.16
2023-04-18T16:23:26.614Z,10.08
2023-04-18T16:26:29.190Z,9.75
2023-04-18T16:29:31.221Z,9.83
2023-04-18T16:32:33.365Z,9.98
2023-04-18T16:35:35.809Z,9.87
2023-04-18T16:38:37.982Z,9.92
2023-04-18T16:41:39.948Z,9.97
2023-04-18T16:44:42.085Z,9.67
2023-04-18T16:47:44.078Z,9.98
2023-04-18T16:50:46.196Z,9.80
2023-04-18T16:53:48.287Z,9.75
2023-04-18T16:56:50.404Z,9.63
2023-04-18T16:59:52.529Z,9.58
2023-04-18T17:02:56.315Z,9.45
2023-04-18T17:05:58.662Z,9.18
2023-04-18T17:09:01.004Z,9.17
2023-04-18T17:12:03.580Z,9.34
2023-04-18T17:15:06.074Z,9.34
2023-04-18T17:18:08.471Z,9.33
2023-04-18T17:21:12.751Z,9.28
2023-04-18T17:24:14.954Z,9.32
2023-04-18T17:27:17.391Z,9.33
2023-04-18T17:30:19.966Z,9.31
2023-04-18T17:33:22.317Z,9.36
2023-04-18T17:36:25.375Z,9.33
2023-04-18T17:39:28.043Z,9.32
2023-04-18T17:42:31.283Z,9.42
2023-04-18T17:45:33.524Z,9.38
2023-04-18T17:48:35.840Z,9.41
2023-04-18T17:51:38.360Z,9.49
2023-04-18T17:54:41.412Z,9.37
2023-04-18T17:57:43.814Z,9.46
2023-04-18T18:00:46.998Z,9.31
2023-04-18T18:03:50.263Z,9.10
2023-04-18T18:06:58.470Z,9.32
2023-04-18T18:10:10.250Z,9.42
2023-04-18T18:13:13.191Z,9.45
2023-04-18T18:16:16.697Z,9.50
2023-04-18T18:19:21.607Z,9.51
2023-04-18T18:22:26.530Z,9.42
2023-04-18T18:25:29.365Z,9.30
2023-04-18T18:28:32.883Z,9.33
2023-04-18T18:31:39.508Z,9.38
2023-04-18T18:34:43.125Z,9.45
2023-04-18T18:37:49.083Z,9.32
2023-04-18T18:40:52.337Z,9.23
2023-04-18T18:43:55.128Z,9.22
2023-04-18T18:46:59.437Z,9.21
2023-04-18T18:50:05.342Z,9.16
2023-04-18T18:53:08.742Z,9.12
2023-04-18T18:56:11.760Z,9.07
2023-04-18T18:59:16.416Z,9.23
2023-04-18T19:02:19.723Z,9.20
2023-04-18T19:05:23.400Z,9.11
2023-04-18T19:08:26.242Z,9.05
2023-04-18T19:11:31.058Z,9.09
2023-04-18T19:14:35.075Z,9.02
2023-04-18T19:17:38.330Z,8.78
2023-04-18T19:20:42.532Z,8.93
2023-04-18T19:23:47.362Z,8.27
2023-04-18T19:26:50.240Z,8.70
2023-04-18T19:29:53.365Z,8.80
2023-04-18T19:32:55.986Z,8.83
2023-04-18T19:35:59.413Z,8.82
2023-04-18T19:39:02.442Z,8.85
2023-04-18T19:42:05.456Z,8.80
2023-04-18T19:45:08.095Z,8.85
2023-04-18T19:48:11.233Z,8.85
2023-04-18T19:51:17.093Z,8.82
2023-04-18T19:54:22.012Z,8.76
2023-04-18T19:57:25.851Z,8.76
2023-04-18T20:00:30.249Z,8.71
2023-04-18T20:03:34.882Z,8.66
2023-04-18T20:06:37.792Z,8.65
2023-04-18T20:09:42.648Z,8.64
2023-04-18T20:12:45.551Z,8.64
2023-04-18T20:15:48.651Z,8.71
2023-04-18T20:18:54.800Z,8.41
2023-04-18T20:21:57.571Z,8.63
2023-04-18T20:25:02.290Z,8.61
2023-04-18T20:28:05.032Z,8.48
2023-04-18T20:31:08.098Z,8.57
2023-04-18T20:34:10.881Z,8.55
2023-04-18T20:37:16.591Z,8.52
2023-04-18T20:40:19.076Z,8.50
2023-04-18T20:43:29.138Z,8.47
2023-04-18T20:46:33.271Z,6.97
2023-04-18T20:49:36.195Z,7.80
2023-04-18T20:52:38.828Z,6.67
2023-04-18T20:55:41.132Z,8.04
2023-04-18T20:58:43.728Z,6.75
2023-04-18T21:01:48.715Z,7.13
2023-04-18T21:04:51.365Z,7.26
2023-04-18T21:07:53.502Z,6.60
2023-04-18T21:10:55.744Z,8.35
2023-04-18T21:13:57.809Z,7.27
2023-04-18T21:17:00.666Z,7.32
2023-04-18T21:20:03.691Z,6.86
2023-04-18T21:23:06.297Z,6.73
2023-04-18T21:26:13.765Z,7.48
2023-04-18T21:29:16.031Z,8.31
2023-04-18T21:32:18.120Z,7.92
2023-04-18T21:35:21.913Z,7.81
2023-04-18T21:38:26.105Z,7.98
2023-04-18T21:41:28.504Z,7.34
2023-04-18T21:44:30.795Z,8.14
2023-04-18T21:47:33.254Z,8.10
2023-04-18T21:50:37.754Z,7.44
2023-04-18T21:53:41.183Z,6.84
2023-04-18T21:56:43.809Z,6.76
2023-04-18T21:59:46.056Z,7.65
2023-04-18T22:02:48.429Z,7.58
2023-04-18T22:05:52.824Z,6.12
2023-04-18T22:08:54.939Z,7.76
2023-04-18T22:11:57.245Z,7.68
2023-04-18T22:14:59.527Z,7.20
2023-04-18T22:18:02.012Z,7.49
2023-04-18T22:21:04.434Z,7.39
2023-04-18T22:24:07.390Z,6.79
2023-04-18T22:27:09.648Z,6.24
2023-04-18T22:30:12.618Z,6.41
2023-04-18T22:33:14.817Z,5.00
2023-04-18T22:36:16.958Z,6.32
2023-04-18T22:39:19.183Z,6.38
2023-04-18T22:42:21.362Z,6.19
2023-04-18T22:45:23.689Z,5.65
2023-04-18T22:48:25.967Z,4.86
2023-04-18T22:51:29.034Z,5.99
2023-04-18T22:54:31.301Z,6.14
2023-04-18T22:57:33.467Z,6.58
2023-04-18T23:00:36.025Z,7.19
2023-04-18T23:03:38.463Z,7.24
2023-04-18T23:06:40.943Z,5.60
2023-04-18T23:09:43.233Z,7.31
2023-04-18T23:12:45.556Z,6.56
2023-04-18T23:15:47.817Z,6.38
2023-04-18T23:18:50.157Z,6.38
2023-04-18T23:21:52.418Z,6.52
2023-04-18T23:24:55.483Z,7.07
2023-04-18T23:27:57.626Z,6.79
2023-04-18T23:30:59.719Z,4.99
2023-04-18T23:34:01.876Z,5.50
2023-04-18T23:37:04.056Z,7.17
2023-04-18T23:40:07.072Z,5.28
2023-04-18T23:43:09.142Z,5.47
2023-04-18T23:46:12.321Z,7.34
2023-04-18T23:49:14.982Z,7.28
2023-04-18T23:52:17.317Z,5.58
2023-04-18T23:55:19.450Z,7.38
2023-04-18T23:58:21.541Z,6.68
